ROMMA est une association bénévole à but non lucratif. Votre soutien est indispensable : ADHERER à ROMMA ou FAIRE un DON

Le Versoud - (38, Isère)

Vallée du Grésivaudan (220 m)   Longitude: 05° 51' 44" E   Latitude: 45° 13' 06" N Station partenaire n°6
 

Détail journalier du     <<     >>

Température Humidité Pression Vent Dir Rafale Dir. rafale Ensol.
Heure (°C) (%) (hPa) (km/h) (km/h) (min)
01:00 12.994102000---0
02:00 12.695102000---0
03:00 12.996102000---0
04:00 12.296102002NE0
05:00 12.396102000---0
06:00 12.495102100---0
07:00 12.694102000---0
08:00 13.292102106NE0
09:00 14.388102108NE0
10:00 16.181102006NNE30
11:00 17.376102005ENE40
12:00 18.274102006NE25
13:00 21.164101905O40
14:00 22.4581018011O60
15:00 23.95710181NE11E60
16:00 24.35110171ONO18O60
17:00 25.44810174NE21N60
18:00 25.54810164NE21NE60
19:00 25.44810163N19NNO60
20:00 24.85010162N19NE60
21:00 22.4581016011NE25
22:00 19.968101600---0
23:00 18.274101700---0
minuit 16.980101700---0

Graphique du 16-06-2019

 

Serveur OMMA